createdAt,value
2023-04-21T00:00:11.849Z,20.97
2023-04-21T00:01:11.862Z,20.93
2023-04-21T00:02:11.956Z,20.94
2023-04-21T00:03:12.225Z,20.97
2023-04-21T00:04:12.108Z,20.96
2023-04-21T00:05:12.443Z,20.96
2023-04-21T00:06:12.023Z,20.97
2023-04-21T00:07:12.062Z,21.00
2023-04-21T00:08:12.187Z,20.91
2023-04-21T00:09:12.123Z,20.96
2023-04-21T00:10:12.136Z,20.98
2023-04-21T00:11:12.168Z,20.98
2023-04-21T00:12:12.455Z,20.94
2023-04-21T00:13:12.236Z,20.94
2023-04-21T00:14:12.254Z,20.97
2023-04-21T00:15:12.291Z,20.87
2023-04-21T00:16:12.350Z,21.08
2023-04-21T00:17:12.352Z,20.90
2023-04-21T00:18:12.377Z,20.96
2023-04-21T00:19:12.734Z,20.93
2023-04-21T00:20:12.475Z,20.98
2023-04-21T00:21:12.472Z,20.98
2023-04-21T00:22:12.506Z,20.90
2023-04-21T00:23:12.531Z,20.91
2023-04-21T00:24:12.552Z,20.90
2023-04-21T00:25:12.594Z,20.96
2023-04-21T00:26:13.030Z,20.97
2023-04-21T00:27:12.641Z,20.87
2023-04-21T00:28:12.674Z,20.97
2023-04-21T00:29:12.811Z,20.97
2023-04-21T00:31:12.837Z,20.98
2023-04-21T00:32:12.796Z,21.01
2023-04-21T00:33:13.129Z,20.88
2023-04-21T00:35:12.907Z,20.97
2023-04-21T00:36:12.922Z,21.03
2023-04-21T00:37:12.946Z,21.01
2023-04-21T00:38:12.976Z,20.82
2023-04-21T00:40:13.035Z,20.94
2023-04-21T00:42:13.156Z,21.00
2023-04-21T00:43:13.136Z,20.85
2023-04-21T00:44:13.156Z,20.97
2023-04-21T00:46:13.571Z,20.83
2023-04-21T00:47:13.321Z,20.85
2023-04-21T00:48:13.272Z,20.94
2023-04-21T00:49:13.330Z,20.96
2023-04-21T00:51:13.381Z,20.96
2023-04-21T00:52:13.700Z,20.96
2023-04-21T00:53:13.436Z,20.96
2023-04-21T00:54:13.458Z,20.96
2023-04-21T00:55:13.490Z,20.81
2023-04-21T00:56:13.531Z,20.98
2023-04-21T00:57:13.550Z,20.88
2023-04-21T00:58:13.873Z,20.94
2023-04-21T00:59:13.699Z,21.00
2023-04-21T01:00:13.667Z,20.97
2023-04-21T01:01:13.824Z,20.94
2023-04-21T01:02:13.802Z,20.87
2023-04-21T01:04:14.127Z,20.96
2023-04-21T01:05:13.787Z,20.94
2023-04-21T01:06:13.821Z,20.93
2023-04-21T01:07:13.879Z,20.91
2023-04-21T01:08:13.890Z,20.88
2023-04-21T01:09:13.930Z,20.90
2023-04-21T01:10:13.941Z,20.82
2023-04-21T01:11:14.273Z,20.90
2023-04-21T01:12:14.004Z,20.88
2023-04-21T01:13:14.028Z,20.96
2023-04-21T01:14:14.059Z,20.97
2023-04-21T01:16:14.144Z,20.88
2023-04-21T01:17:14.156Z,20.88
2023-04-21T01:18:14.489Z,20.91
2023-04-21T01:20:14.302Z,20.90
2023-04-21T01:21:14.271Z,20.93
2023-04-21T01:22:14.312Z,20.88
2023-04-21T01:23:14.350Z,20.91
2023-04-21T01:26:14.417Z,20.87
2023-04-21T01:27:14.464Z,20.88
2023-04-21T01:28:14.583Z,20.83
2023-04-21T01:29:14.508Z,20.88
2023-04-21T01:30:14.532Z,20.98
2023-04-21T01:31:14.568Z,20.83
2023-04-21T01:32:14.932Z,20.90
2023-04-21T01:33:14.690Z,20.87
2023-04-21T01:35:14.680Z,20.87
2023-04-21T01:36:14.733Z,20.85
2023-04-21T01:37:14.749Z,20.87
2023-04-21T01:38:14.878Z,20.88
2023-04-21T01:39:15.123Z,20.83
2023-04-21T01:40:14.845Z,20.76
2023-04-21T01:41:14.881Z,20.83
2023-04-21T01:42:14.902Z,20.83
2023-04-21T01:43:14.923Z,20.88
2023-04-21T01:45:14.990Z,20.88
2023-04-21T01:46:15.091Z,20.81
2023-04-21T01:48:15.138Z,20.88
2023-04-21T01:49:15.105Z,20.85
2023-04-21T01:50:15.134Z,20.91
2023-04-21T01:51:15.168Z,20.83
2023-04-21T01:52:15.495Z,20.91
2023-04-21T01:53:15.228Z,20.87
2023-04-21T01:54:15.258Z,20.85
2023-04-21T01:55:15.379Z,20.85
2023-04-21T01:56:15.312Z,20.88
2023-04-21T01:57:15.418Z,20.85
2023-04-21T01:58:15.759Z,20.88
2023-04-21T01:59:15.404Z,20.85
2023-04-21T02:00:15.441Z,20.88
2023-04-21T02:01:15.509Z,20.85
2023-04-21T02:02:15.575Z,20.88
2023-04-21T02:03:15.644Z,20.88
2023-04-21T02:06:15.619Z,20.85
2023-04-21T02:07:15.650Z,20.83
2023-04-21T02:08:15.677Z,20.83
2023-04-21T02:09:15.703Z,20.82
2023-04-21T02:10:15.734Z,20.82
2023-04-21T02:11:16.080Z,20.79
2023-04-21T02:12:15.825Z,20.83
2023-04-21T02:13:15.917Z,20.82
2023-04-21T02:14:15.865Z,20.82
2023-04-21T02:15:15.944Z,20.82
2023-04-21T02:16:15.970Z,20.85
2023-04-21T02:17:15.942Z,20.90
2023-04-21T02:18:16.274Z,20.82
2023-04-21T02:20:16.026Z,20.79
2023-04-21T02:21:16.070Z,20.83
2023-04-21T02:23:16.119Z,20.85
2023-04-21T02:24:16.150Z,20.85
2023-04-21T02:25:16.478Z,20.90
2023-04-21T02:26:16.210Z,20.81
2023-04-21T02:27:16.256Z,20.87
2023-04-21T02:28:16.276Z,20.90
2023-04-21T02:29:16.350Z,20.85
2023-04-21T02:30:16.324Z,20.83
2023-04-21T02:31:16.442Z,20.88
2023-04-21T02:32:25.560Z,20.85
2023-04-21T02:33:16.437Z,20.85
2023-04-21T02:34:16.446Z,20.85
2023-04-21T02:36:16.538Z,20.81
2023-04-21T02:37:16.543Z,20.85
2023-04-21T02:38:16.587Z,20.78
2023-04-21T02:39:17.148Z,20.85
2023-04-21T02:40:16.635Z,20.83
2023-04-21T02:41:16.659Z,20.82
2023-04-21T02:42:16.799Z,20.82
2023-04-21T02:44:16.803Z,20.81
2023-04-21T02:45:16.775Z,20.78
2023-04-21T02:46:17.129Z,20.79
2023-04-21T02:47:16.960Z,20.79
2023-04-21T02:48:16.858Z,20.82
2023-04-21T02:49:17.114Z,20.82
2023-04-21T02:50:16.928Z,20.81
2023-04-21T02:51:16.953Z,20.85
2023-04-21T02:52:16.984Z,20.85
2023-04-21T02:53:17.332Z,20.82
2023-04-21T02:55:17.071Z,20.79
2023-04-21T02:56:17.109Z,20.82
2023-04-21T02:57:17.136Z,20.75
2023-04-21T02:59:17.325Z,20.79
2023-04-21T03:00:17.578Z,20.81
2023-04-21T03:01:17.355Z,20.87
2023-04-21T03:02:17.363Z,20.75
2023-04-21T03:04:17.408Z,20.75
2023-04-21T03:05:17.367Z,20.72
2023-04-21T03:06:17.395Z,20.69
2023-04-21T03:07:17.832Z,20.73
2023-04-21T03:08:17.456Z,20.71
2023-04-21T03:09:17.717Z,20.73
2023-04-21T03:10:17.520Z,20.71
2023-04-21T03:11:17.550Z,20.73
2023-04-21T03:12:17.578Z,20.71
2023-04-21T03:13:17.606Z,20.71
2023-04-21T03:14:17.947Z,20.71
2023-04-21T03:16:17.738Z,20.71
2023-04-21T03:17:17.750Z,20.72
2023-04-21T03:18:17.765Z,20.72
2023-04-21T03:19:18.149Z,20.64
2023-04-21T03:20:17.850Z,20.71
2023-04-21T03:21:18.156Z,20.69
2023-04-21T03:22:17.881Z,20.75
2023-04-21T03:23:17.905Z,20.69
2023-04-21T03:24:17.984Z,20.68
2023-04-21T03:25:17.968Z,20.73
2023-04-21T03:26:17.993Z,20.60
2023-04-21T03:27:18.035Z,20.64
2023-04-21T03:28:18.367Z,20.73
2023-04-21T03:32:18.295Z,20.66
2023-04-21T03:33:18.210Z,20.68
2023-04-21T03:34:18.233Z,20.68
2023-04-21T03:35:18.565Z,20.63
2023-04-21T03:36:18.288Z,20.75
2023-04-21T03:38:18.352Z,20.63
2023-04-21T03:39:20.057Z,20.64
2023-04-21T03:40:18.440Z,20.66
2023-04-21T03:41:18.740Z,20.68
2023-04-21T03:42:18.504Z,20.61
2023-04-21T03:43:18.513Z,20.64
2023-04-21T03:44:18.534Z,20.61
2023-04-21T03:45:18.563Z,20.58
2023-04-21T03:46:18.649Z,20.61
2023-04-21T03:47:18.921Z,20.63
2023-04-21T03:48:18.674Z,20.64
2023-04-21T03:49:18.827Z,20.61
2023-04-21T03:51:18.737Z,20.61
2023-04-21T03:52:18.766Z,20.61
2023-04-21T03:53:19.134Z,20.64
2023-04-21T03:55:18.869Z,20.64
2023-04-21T03:56:18.888Z,20.57
2023-04-21T03:57:18.917Z,20.61
2023-04-21T03:58:18.966Z,20.56
2023-04-21T03:59:19.184Z,20.58
2023-04-21T04:00:19.268Z,20.57
2023-04-21T04:01:19.053Z,20.56
2023-04-21T04:02:19.229Z,20.61
2023-04-21T04:03:20.505Z,20.58
2023-04-21T04:04:19.441Z,20.64
2023-04-21T04:06:19.487Z,20.54
2023-04-21T04:07:19.213Z,20.57
2023-04-21T04:08:19.254Z,20.61
2023-04-21T04:09:19.645Z,20.60
2023-04-21T04:10:19.316Z,20.54
2023-04-21T04:11:19.454Z,20.60
2023-04-21T04:12:19.357Z,20.54
2023-04-21T04:13:19.707Z,20.60
2023-04-21T04:14:19.423Z,20.54
2023-04-21T04:15:19.456Z,20.54
2023-04-21T04:16:19.512Z,20.57
2023-04-21T04:17:19.525Z,20.57
2023-04-21T04:18:19.548Z,20.61
2023-04-21T04:19:19.948Z,20.61
2023-04-21T04:20:19.923Z,20.58
2023-04-21T04:21:19.635Z,20.60
2023-04-21T04:22:19.661Z,20.57
2023-04-21T04:23:19.690Z,20.54
2023-04-21T04:24:19.726Z,20.57
2023-04-21T04:25:19.763Z,20.53
2023-04-21T04:26:19.780Z,20.54
2023-04-21T04:27:20.103Z,20.56
2023-04-21T04:28:19.936Z,20.46
2023-04-21T04:29:20.001Z,20.44
2023-04-21T04:30:19.893Z,20.46
2023-04-21T04:31:19.973Z,20.51
2023-04-21T04:33:20.583Z,20.50
2023-04-21T04:34:20.034Z,20.53
2023-04-21T04:35:20.174Z,20.50
2023-04-21T04:36:20.103Z,20.41
2023-04-21T04:37:20.095Z,20.50
2023-04-21T04:38:20.125Z,20.42
2023-04-21T04:39:20.672Z,20.42
2023-04-21T04:41:20.217Z,20.46
2023-04-21T04:42:20.355Z,20.44
2023-04-21T04:43:20.277Z,20.38
2023-04-21T04:44:20.484Z,20.41
2023-04-21T04:45:20.637Z,20.42
2023-04-21T04:46:20.558Z,20.46
2023-04-21T04:47:20.448Z,20.42
2023-04-21T04:48:20.423Z,20.44
2023-04-21T04:50:20.496Z,20.44
2023-04-21T04:51:20.534Z,20.50
2023-04-21T04:52:20.888Z,20.54
2023-04-21T04:53:20.571Z,20.46
2023-04-21T04:54:20.779Z,20.51
2023-04-21T04:55:20.629Z,20.44
2023-04-21T04:56:20.667Z,20.56
2023-04-21T04:57:20.713Z,20.56
2023-04-21T04:58:21.029Z,20.57
2023-04-21T04:59:20.757Z,20.48
2023-04-21T05:00:20.781Z,20.53
2023-04-21T05:02:20.988Z,20.44
2023-04-21T05:03:21.030Z,20.56
2023-04-21T05:05:21.224Z,20.51
2023-04-21T05:06:20.957Z,20.51
2023-04-21T05:07:21.091Z,20.58
2023-04-21T05:08:21.041Z,20.48
2023-04-21T05:09:21.048Z,20.53
2023-04-21T05:10:21.085Z,20.48
2023-04-21T05:11:21.225Z,20.58
2023-04-21T05:12:21.443Z,20.56
2023-04-21T05:13:21.166Z,20.54
2023-04-21T05:14:21.457Z,20.53
2023-04-21T05:15:21.327Z,20.58
2023-04-21T05:16:21.293Z,20.60
2023-04-21T05:17:21.405Z,20.60
2023-04-21T05:18:21.312Z,20.63
2023-04-21T05:19:21.697Z,20.56
2023-04-21T05:20:21.379Z,20.56
2023-04-21T05:21:21.396Z,20.58
2023-04-21T05:22:21.453Z,20.57
2023-04-21T05:24:21.654Z,20.60
2023-04-21T05:25:21.526Z,20.58
2023-04-21T05:26:21.796Z,20.63
2023-04-21T05:27:21.589Z,20.66
2023-04-21T05:28:21.609Z,20.64
2023-04-21T05:29:21.700Z,20.61
2023-04-21T05:30:21.692Z,20.68
2023-04-21T05:31:21.694Z,20.63
2023-04-21T05:32:21.796Z,20.57
2023-04-21T05:33:22.106Z,20.61
2023-04-21T05:34:21.995Z,20.63
2023-04-21T05:35:21.827Z,20.61
2023-04-21T05:36:21.846Z,20.60
2023-04-21T05:37:21.916Z,20.61
2023-04-21T05:39:22.203Z,20.66
2023-04-21T05:40:21.985Z,20.63
2023-04-21T05:43:22.058Z,20.60
2023-04-21T05:44:22.102Z,20.66
2023-04-21T05:45:22.122Z,20.61
2023-04-21T05:46:22.477Z,20.63
2023-04-21T05:47:22.212Z,20.66
2023-04-21T05:48:22.199Z,20.64
2023-04-21T05:49:22.235Z,20.66
2023-04-21T05:50:22.264Z,20.61
2023-04-21T05:51:22.289Z,20.61
2023-04-21T05:53:22.651Z,20.66
2023-04-21T05:54:22.425Z,20.63
2023-04-21T05:55:22.407Z,20.56
2023-04-21T05:56:22.454Z,20.60
2023-04-21T05:57:22.467Z,20.61
2023-04-21T05:58:22.500Z,20.60
2023-04-21T05:59:22.528Z,20.71
2023-04-21T06:00:22.862Z,20.64
2023-04-21T06:01:22.584Z,20.64
2023-04-21T06:02:22.785Z,20.63
2023-04-21T06:03:22.854Z,20.64
2023-04-21T06:04:22.981Z,20.73
2023-04-21T06:05:22.785Z,20.76
2023-04-21T06:06:23.034Z,20.71
2023-04-21T06:07:22.772Z,20.71
2023-04-21T06:08:22.791Z,20.72
2023-04-21T06:09:22.819Z,20.72
2023-04-21T06:10:22.852Z,20.72
2023-04-21T06:11:22.882Z,20.61
2023-04-21T06:12:23.497Z,20.73
2023-04-21T06:13:22.942Z,20.63
2023-04-21T06:15:22.996Z,20.66
2023-04-21T06:16:23.077Z,20.69
2023-04-21T06:17:23.064Z,20.68
2023-04-21T06:18:23.689Z,20.71
2023-04-21T06:19:23.117Z,20.71
2023-04-21T06:20:23.150Z,20.72
2023-04-21T06:21:23.191Z,20.69
2023-04-21T06:22:23.210Z,20.71
2023-04-21T06:23:23.346Z,20.72
2023-04-21T06:24:23.266Z,20.71
2023-04-21T06:25:23.546Z,20.64
2023-04-21T06:26:23.333Z,20.71
2023-04-21T06:28:23.400Z,20.73
2023-04-21T06:29:23.407Z,20.75
2023-04-21T06:30:23.436Z,20.73
2023-04-21T06:31:23.492Z,20.73
2023-04-21T06:32:23.856Z,20.69
2023-04-21T06:33:23.525Z,20.72
2023-04-21T06:34:23.559Z,20.76
2023-04-21T06:35:23.584Z,20.78
2023-04-21T06:36:23.622Z,20.78
2023-04-21T06:37:23.650Z,20.88
2023-04-21T06:38:23.718Z,20.82
2023-04-21T06:39:24.050Z,20.79
2023-04-21T06:40:23.746Z,20.82
2023-04-21T06:41:24.965Z,20.85
2023-04-21T06:42:23.796Z,20.83
2023-04-21T06:43:23.848Z,20.83
2023-04-21T06:44:23.873Z,20.76
2023-04-21T06:45:23.881Z,20.82
2023-04-21T06:46:24.268Z,20.83
2023-04-21T06:47:24.018Z,20.82
2023-04-21T06:48:23.976Z,20.83
2023-04-21T06:49:24.020Z,20.78
2023-04-21T06:50:24.037Z,20.82
2023-04-21T06:51:24.065Z,20.83
2023-04-21T06:52:24.105Z,20.85
2023-04-21T06:53:24.421Z,20.93
2023-04-21T06:54:24.151Z,20.82
2023-04-21T06:55:24.188Z,20.85
2023-04-21T06:56:24.214Z,20.83
2023-04-21T06:57:24.241Z,20.82
2023-04-21T06:58:24.278Z,20.83
2023-04-21T06:59:24.350Z,20.83
2023-04-21T07:00:24.436Z,20.83
2023-04-21T07:01:24.406Z,20.83
2023-04-21T07:02:24.543Z,20.87
2023-04-21T07:03:24.619Z,20.88
2023-04-21T07:04:24.543Z,20.85
2023-04-21T07:05:24.584Z,20.88
2023-04-21T07:06:24.517Z,20.87
2023-04-21T07:07:24.548Z,20.90
2023-04-21T07:08:24.578Z,20.88
2023-04-21T07:09:24.600Z,20.93
2023-04-21T07:10:24.632Z,20.83
2023-04-21T07:12:24.994Z,20.88
2023-04-21T07:13:24.732Z,20.88
2023-04-21T07:14:24.759Z,20.93
2023-04-21T07:15:24.795Z,20.96
2023-04-21T07:16:24.904Z,20.91
2023-04-21T07:17:24.886Z,20.96
2023-04-21T07:19:24.930Z,20.96
2023-04-21T07:20:24.931Z,20.98
2023-04-21T07:21:24.966Z,21.03
2023-04-21T07:23:25.343Z,20.98
2023-04-21T07:24:25.059Z,21.00
2023-04-21T07:25:25.099Z,20.85
2023-04-21T07:26:25.128Z,20.91
2023-04-21T07:27:25.145Z,20.91
2023-04-21T07:28:25.174Z,20.93
2023-04-21T07:29:25.202Z,20.94
2023-04-21T07:30:25.585Z,20.97
2023-04-21T07:31:25.305Z,20.96
2023-04-21T07:32:25.363Z,20.96
2023-04-21T07:33:25.316Z,20.93
2023-04-21T07:34:25.355Z,20.96
2023-04-21T07:35:25.385Z,20.97
2023-04-21T07:36:25.409Z,21.01
2023-04-21T07:37:25.823Z,21.01
2023-04-21T07:38:25.581Z,21.03
2023-04-21T07:39:25.511Z,20.98
2023-04-21T07:40:25.570Z,21.01
2023-04-21T07:41:25.578Z,21.06
2023-04-21T07:42:25.588Z,21.03
2023-04-21T07:43:25.623Z,21.06
2023-04-21T07:44:25.944Z,21.00
2023-04-21T07:45:25.694Z,21.01
2023-04-21T07:46:25.938Z,21.06
2023-04-21T07:47:25.827Z,21.03
2023-04-21T07:48:25.782Z,21.08
2023-04-21T07:49:25.799Z,21.08
2023-04-21T07:50:25.825Z,21.05
2023-04-21T07:51:26.258Z,21.05
2023-04-21T07:52:25.941Z,21.08
2023-04-21T07:53:25.921Z,21.00
2023-04-21T07:54:25.953Z,21.08
2023-04-21T07:55:25.979Z,21.06
2023-04-21T07:56:26.007Z,21.12
2023-04-21T07:57:26.112Z,21.11
2023-04-21T07:58:26.366Z,21.08
2023-04-21T07:59:26.095Z,21.08
2023-04-21T08:00:26.201Z,21.16
2023-04-21T08:01:26.153Z,21.21
2023-04-21T08:02:26.236Z,21.16
2023-04-21T08:03:26.375Z,21.15
2023-04-21T08:04:26.377Z,21.24
2023-04-21T08:05:30.108Z,21.27
2023-04-21T08:06:26.343Z,21.28
2023-04-21T08:07:26.346Z,21.27
2023-04-21T08:08:26.367Z,21.33
2023-04-21T08:09:26.406Z,21.16
2023-04-21T08:10:26.428Z,21.28
2023-04-21T08:11:26.857Z,21.19
2023-04-21T08:12:26.494Z,21.36
2023-04-21T08:13:26.530Z,21.34
2023-04-21T08:14:26.557Z,21.36
2023-04-21T08:15:26.612Z,21.33
2023-04-21T08:16:26.673Z,21.40
2023-04-21T08:17:26.656Z,21.38
2023-04-21T08:18:26.975Z,21.36
2023-04-21T08:19:26.699Z,21.38
2023-04-21T08:20:26.777Z,21.51
2023-04-21T08:21:26.828Z,21.42
2023-04-21T08:22:26.850Z,21.48
2023-04-21T08:23:26.843Z,21.48
2023-04-21T08:24:27.158Z,21.43
2023-04-21T08:25:26.885Z,21.51
2023-04-21T08:26:26.918Z,21.55
2023-04-21T08:27:26.990Z,21.52
2023-04-21T08:28:26.982Z,21.53
2023-04-21T08:29:27.030Z,21.58
2023-04-21T08:30:27.345Z,21.55
2023-04-21T08:31:27.116Z,21.59
2023-04-21T08:32:27.163Z,21.56
2023-04-21T08:33:27.145Z,21.63
2023-04-21T08:34:28.012Z,21.64
2023-04-21T08:35:27.192Z,21.67
2023-04-21T08:36:29.759Z,21.64
2023-04-21T08:37:27.298Z,21.67
2023-04-21T08:39:27.306Z,21.67
2023-04-21T08:40:27.338Z,21.75
2023-04-21T08:41:27.402Z,21.77
2023-04-21T08:42:27.396Z,21.81
2023-04-21T08:43:27.736Z,21.83
2023-04-21T08:44:27.459Z,21.83
2023-04-21T08:45:27.577Z,21.79
2023-04-21T08:46:27.627Z,21.86
2023-04-21T08:47:27.676Z,21.73
2023-04-21T08:48:27.588Z,21.75
2023-04-21T08:49:27.626Z,21.82
2023-04-21T08:50:27.953Z,21.85
2023-04-21T08:51:27.787Z,21.91
2023-04-21T08:52:27.749Z,21.90
2023-04-21T08:53:27.841Z,21.91
2023-04-21T08:54:29.837Z,21.93
2023-04-21T08:55:27.799Z,21.94
2023-04-21T08:56:27.823Z,21.91
2023-04-21T08:57:28.156Z,21.99
2023-04-21T08:58:27.984Z,21.93
2023-04-21T08:59:28.000Z,21.96
2023-04-21T09:00:27.950Z,21.89
2023-04-21T09:02:28.131Z,21.94
2023-04-21T09:03:28.197Z,21.98
2023-04-21T09:04:28.651Z,21.99
2023-04-21T09:05:28.353Z,21.99
2023-04-21T09:06:28.235Z,22.05
2023-04-21T09:07:28.162Z,22.04
2023-04-21T09:08:28.216Z,22.09
2023-04-21T09:09:28.235Z,22.06
2023-04-21T09:10:28.289Z,22.06
2023-04-21T09:11:28.942Z,22.05
2023-04-21T09:12:28.346Z,22.06
2023-04-21T09:13:28.356Z,22.11
2023-04-21T09:15:28.421Z,22.12
2023-04-21T09:16:28.438Z,22.09
2023-04-21T09:18:28.809Z,22.09
2023-04-21T09:19:28.534Z,22.06
2023-04-21T09:20:28.595Z,22.09
2023-04-21T09:21:30.674Z,22.09
2023-04-21T09:22:28.680Z,22.08
2023-04-21T09:23:28.704Z,22.06
2023-04-21T09:24:28.902Z,22.14
2023-04-21T09:25:29.024Z,22.15
2023-04-21T09:27:28.809Z,22.19
2023-04-21T09:28:28.822Z,22.15
2023-04-21T09:29:28.857Z,22.15
2023-04-21T09:30:28.898Z,22.15
2023-04-21T09:32:29.255Z,22.23
2023-04-21T09:33:32.605Z,22.24
2023-04-21T09:34:29.062Z,22.23
2023-04-21T09:35:29.051Z,22.24
2023-04-21T09:36:29.120Z,22.29
2023-04-21T09:37:29.106Z,22.21
2023-04-21T09:38:29.171Z,22.30
2023-04-21T09:39:43.111Z,22.29
2023-04-21T09:41:29.360Z,22.30
2023-04-21T09:42:29.254Z,22.30
2023-04-21T09:43:29.296Z,22.31
2023-04-21T09:44:31.877Z,22.24
2023-04-21T09:45:39.530Z,22.30
2023-04-21T09:46:29.709Z,22.27
2023-04-21T09:47:29.442Z,22.29
2023-04-21T09:48:29.468Z,22.35
2023-04-21T09:49:29.572Z,22.30
2023-04-21T09:51:42.702Z,22.31
2023-04-21T09:52:29.567Z,22.26
2023-04-21T09:53:29.898Z,22.38
2023-04-21T09:54:30.455Z,22.41
2023-04-21T09:55:29.687Z,22.36
2023-04-21T09:56:29.692Z,22.42
2023-04-21T09:57:29.753Z,22.42
2023-04-21T09:58:29.752Z,22.36
2023-04-21T09:59:29.799Z,22.41
2023-04-21T10:00:30.103Z,22.33
2023-04-21T10:01:29.907Z,22.39
2023-04-21T10:02:29.968Z,22.41
2023-04-21T10:03:30.174Z,22.41
2023-04-21T10:04:30.652Z,22.48
2023-04-21T10:05:30.030Z,22.51
2023-04-21T10:06:30.005Z,22.49
2023-04-21T10:08:30.068Z,22.54
2023-04-21T10:09:30.209Z,22.45
2023-04-21T10:10:30.131Z,22.54
2023-04-21T10:12:30.201Z,22.60
2023-04-21T10:13:30.248Z,22.61
2023-04-21T10:14:30.683Z,22.60
2023-04-21T10:15:30.294Z,22.54
2023-04-21T10:16:30.373Z,22.56
2023-04-21T10:17:30.417Z,22.56
2023-04-21T10:19:30.710Z,22.63
2023-04-21T10:21:30.500Z,22.59
2023-04-21T10:22:30.507Z,22.72
2023-04-21T10:23:30.566Z,22.74
2023-04-21T10:24:30.621Z,22.70
2023-04-21T10:25:30.911Z,22.59
2023-04-21T10:27:30.667Z,22.72
2023-04-21T10:28:30.695Z,22.57
2023-04-21T10:29:40.223Z,22.69
2023-04-21T10:31:31.085Z,22.60
2023-04-21T10:32:30.887Z,22.67
2023-04-21T10:33:30.862Z,22.74
2023-04-21T10:34:30.889Z,22.72
2023-04-21T10:35:30.954Z,22.72
2023-04-21T10:36:30.960Z,22.70
2023-04-21T10:37:31.006Z,22.72
2023-04-21T10:38:31.019Z,22.75
2023-04-21T10:39:31.067Z,22.70
2023-04-21T10:40:43.188Z,22.70
2023-04-21T10:42:31.171Z,22.70
2023-04-21T10:43:31.174Z,22.72
2023-04-21T10:44:31.209Z,22.67
2023-04-21T10:45:31.258Z,22.72
2023-04-21T10:46:31.327Z,22.69
2023-04-21T10:47:31.357Z,22.75
2023-04-21T10:48:31.349Z,22.69
2023-04-21T10:49:31.375Z,22.75
2023-04-21T10:50:31.740Z,22.70
2023-04-21T10:51:31.532Z,22.74
2023-04-21T10:52:31.468Z,22.70
2023-04-21T10:53:31.503Z,22.74
2023-04-21T10:54:31.541Z,22.72
2023-04-21T10:55:31.567Z,22.69
2023-04-21T10:56:31.891Z,22.75
2023-04-21T10:58:31.657Z,22.69
2023-04-21T10:59:31.698Z,22.69
2023-04-21T11:00:31.724Z,22.67
2023-04-21T11:01:31.823Z,22.63
2023-04-21T11:02:32.472Z,22.76
2023-04-21T11:03:31.933Z,22.66
2023-04-21T11:04:32.290Z,22.72
2023-04-21T11:05:31.880Z,22.78
2023-04-21T11:06:31.944Z,22.79
2023-04-21T11:07:31.937Z,22.67
2023-04-21T11:08:32.325Z,22.72
2023-04-21T11:09:32.006Z,22.63
2023-04-21T11:13:32.125Z,22.75
2023-04-21T11:14:33.117Z,22.61
2023-04-21T11:15:32.195Z,22.74
2023-04-21T11:16:32.255Z,22.70
2023-04-21T11:17:32.316Z,22.61
2023-04-21T11:18:32.292Z,22.76
2023-04-21T11:19:32.323Z,22.69
2023-04-21T11:20:32.350Z,22.64
2023-04-21T11:21:32.380Z,22.64
2023-04-21T11:22:32.414Z,22.72
2023-04-21T11:23:32.477Z,22.76
2023-04-21T11:24:32.476Z,22.69
2023-04-21T11:25:32.542Z,22.74
2023-04-21T11:26:32.579Z,22.70
2023-04-21T11:27:32.885Z,22.72
2023-04-21T11:28:32.607Z,22.70
2023-04-21T11:29:32.635Z,22.85
2023-04-21T11:30:32.727Z,22.88
2023-04-21T11:31:32.750Z,22.76
2023-04-21T11:32:32.775Z,22.86
2023-04-21T11:33:33.100Z,22.79
2023-04-21T11:34:32.802Z,22.86
2023-04-21T11:36:32.864Z,22.85
2023-04-21T11:37:32.905Z,22.82
2023-04-21T11:38:32.927Z,22.79
2023-04-21T11:39:33.264Z,22.91
2023-04-21T11:40:32.996Z,22.91
2023-04-21T11:41:33.037Z,22.91
2023-04-21T11:42:33.079Z,22.91
2023-04-21T11:43:33.092Z,22.99
2023-04-21T11:44:33.229Z,22.99
2023-04-21T11:45:33.408Z,22.97
2023-04-21T11:46:33.223Z,23.00
2023-04-21T11:47:33.342Z,22.97
2023-04-21T11:49:33.313Z,22.96
2023-04-21T11:50:33.333Z,23.01
2023-04-21T11:51:33.365Z,22.94
2023-04-21T11:52:33.689Z,22.96
2023-04-21T11:53:33.427Z,22.99
2023-04-21T11:54:33.444Z,22.96
2023-04-21T11:55:33.497Z,22.99
2023-04-21T11:56:33.504Z,22.97
2023-04-21T11:57:33.622Z,23.01
2023-04-21T11:58:33.578Z,22.93
2023-04-21T11:59:33.909Z,23.00
2023-04-21T12:00:33.690Z,23.01
2023-04-21T12:01:33.688Z,22.97
2023-04-21T12:02:33.925Z,23.06
2023-04-21T12:03:33.980Z,23.01
2023-04-21T12:04:34.573Z,22.97
2023-04-21T12:05:33.833Z,23.01
2023-04-21T12:07:34.167Z,23.01
2023-04-21T12:08:33.887Z,23.04
2023-04-21T12:09:33.942Z,23.04
2023-04-21T12:10:33.996Z,22.97
2023-04-21T12:12:35.812Z,23.06
2023-04-21T12:14:34.334Z,22.96
2023-04-21T12:15:34.148Z,22.94
2023-04-21T12:16:34.157Z,23.01
2023-04-21T12:17:34.222Z,23.00
2023-04-21T12:18:36.087Z,23.03
2023-04-21T12:19:34.271Z,23.09
2023-04-21T12:20:34.902Z,23.11
2023-04-21T12:21:34.783Z,23.03
2023-04-21T12:22:34.349Z,23.06
2023-04-21T12:23:34.377Z,23.06
2023-04-21T12:24:36.210Z,23.03
2023-04-21T12:25:34.446Z,23.14
2023-04-21T12:26:34.469Z,23.09
2023-04-21T12:27:34.504Z,23.03
2023-04-21T12:28:34.537Z,22.97
2023-04-21T12:30:37.989Z,23.00
2023-04-21T12:31:34.670Z,23.09
2023-04-21T12:32:34.753Z,23.01
2023-04-21T12:33:34.704Z,23.12
2023-04-21T12:34:35.004Z,23.11
2023-04-21T12:35:34.761Z,23.06
2023-04-21T12:36:36.422Z,23.07
2023-04-21T12:37:34.852Z,23.09
2023-04-21T12:38:34.857Z,23.06
2023-04-21T12:39:34.902Z,23.04
2023-04-21T12:40:35.032Z,23.04
2023-04-21T12:41:35.252Z,23.11
2023-04-21T12:42:37.437Z,23.04
2023-04-21T12:43:35.033Z,23.04
2023-04-21T12:44:35.055Z,23.04
2023-04-21T12:45:35.101Z,23.11
2023-04-21T12:46:35.117Z,23.06
2023-04-21T12:47:35.303Z,23.01
2023-04-21T12:48:35.442Z,23.04
2023-04-21T12:50:35.271Z,23.16
2023-04-21T12:51:35.428Z,23.12
2023-04-21T12:52:35.314Z,23.06
2023-04-21T12:53:35.671Z,23.09
2023-04-21T12:54:35.422Z,23.12
2023-04-21T12:55:35.416Z,23.19
2023-04-21T12:57:35.474Z,23.18
2023-04-21T12:58:35.509Z,23.18
2023-04-21T12:59:35.553Z,23.15
2023-04-21T13:00:35.573Z,23.21
2023-04-21T13:01:35.932Z,23.14
2023-04-21T13:02:35.764Z,23.14
2023-04-21T13:03:35.866Z,23.15
2023-04-21T13:04:35.842Z,23.19
2023-04-21T13:06:35.763Z,23.15
2023-04-21T13:07:35.896Z,23.23
2023-04-21T13:08:36.140Z,23.26
2023-04-21T13:09:35.904Z,23.26
2023-04-21T13:10:35.887Z,23.23
2023-04-21T13:11:35.927Z,23.25
2023-04-21T13:12:35.959Z,23.34
2023-04-21T13:13:35.986Z,23.35
2023-04-21T13:14:36.020Z,23.34
2023-04-21T13:15:36.052Z,23.38
2023-04-21T13:16:36.124Z,23.37
2023-04-21T13:17:36.110Z,23.38
2023-04-21T13:18:36.162Z,23.32
2023-04-21T13:19:36.188Z,23.42
2023-04-21T13:20:36.225Z,23.42
2023-04-21T13:21:36.260Z,23.42
2023-04-21T13:22:36.284Z,23.45
2023-04-21T13:23:36.325Z,23.42
2023-04-21T13:24:36.354Z,23.41
2023-04-21T13:25:36.413Z,23.42
2023-04-21T13:26:36.706Z,23.42
2023-04-21T13:28:36.494Z,23.47
2023-04-21T13:29:36.505Z,23.44
2023-04-21T13:30:36.534Z,23.54
2023-04-21T13:31:36.669Z,23.50
2023-04-21T13:32:36.673Z,23.57
2023-04-21T13:34:37.001Z,23.57
2023-04-21T13:36:36.801Z,23.62
2023-04-21T13:38:36.822Z,23.56
2023-04-21T13:39:36.861Z,23.62
2023-04-21T13:40:36.861Z,23.64
2023-04-21T13:41:37.228Z,23.64
2023-04-21T13:42:36.933Z,23.72
2023-04-21T13:43:36.979Z,23.75
2023-04-21T13:44:37.000Z,23.75
2023-04-21T13:45:37.043Z,23.81
2023-04-21T13:47:37.428Z,23.77
2023-04-21T13:48:37.123Z,23.78
2023-04-21T13:49:37.161Z,23.79
2023-04-21T13:50:37.211Z,23.92
2023-04-21T13:51:37.231Z,23.92
2023-04-21T13:52:37.255Z,23.90
2023-04-21T13:53:37.290Z,23.90
2023-04-21T13:54:37.333Z,23.87
2023-04-21T13:55:37.373Z,23.90
2023-04-21T13:56:37.395Z,23.93
2023-04-21T13:58:37.527Z,23.84
2023-04-21T13:59:37.506Z,23.87
2023-04-21T14:00:37.823Z,23.90
2023-04-21T14:01:37.649Z,23.90
2023-04-21T14:02:37.768Z,23.86
2023-04-21T14:04:37.942Z,23.77
2023-04-21T14:05:37.999Z,23.89
2023-04-21T14:06:38.053Z,23.77
2023-04-21T14:07:37.800Z,23.86
2023-04-21T14:08:37.797Z,23.77
2023-04-21T14:09:37.839Z,23.75
2023-04-21T14:10:37.867Z,23.81
2023-04-21T14:11:37.886Z,23.79
2023-04-21T14:12:38.196Z,23.82
2023-04-21T14:14:39.298Z,23.90